sensor_id;sensor_type;location;lat;lon;timestamp;P1;durP1;ratioP1;P2;durP2;ratioP2
70313;SDS011;57725;47.526;18.986;2023-05-16T00:00:36;50.50;;;36.25;;
70313;SDS011;57725;47.526;18.986;2023-05-16T00:03:03;52.20;;;37.97;;
70313;SDS011;57725;47.526;18.986;2023-05-16T00:05:36;51.35;;;36.85;;
70313;SDS011;57725;47.526;18.986;2023-05-16T00:08:01;49.20;;;36.00;;
70313;SDS011;57725;47.526;18.986;2023-05-16T00:10:27;46.80;;;34.63;;
70313;SDS011;57725;47.526;18.986;2023-05-16T00:12:52;48.83;;;35.45;;
70313;SDS011;57725;47.526;18.986;2023-05-16T00:15:18;46.90;;;33.83;;
70313;SDS011;57725;47.526;18.986;2023-05-16T00:17:44;47.13;;;33.50;;
70313;SDS011;57725;47.526;18.986;2023-05-16T00:20:11;45.38;;;33.53;;
70313;SDS011;57725;47.526;18.986;2023-05-16T00:22:40;44.20;;;32.05;;
70313;SDS011;57725;47.526;18.986;2023-05-16T00:25:06;44.40;;;31.58;;
70313;SDS011;57725;47.526;18.986;2023-05-16T00:27:35;43.67;;;31.02;;
70313;SDS011;57725;47.526;18.986;2023-05-16T00:30:01;45.80;;;32.30;;
70313;SDS011;57725;47.526;18.986;2023-05-16T00:32:27;43.55;;;30.92;;
70313;SDS011;57725;47.526;18.986;2023-05-16T00:34:53;43.17;;;31.10;;
70313;SDS011;57725;47.526;18.986;2023-05-16T00:37:20;41.88;;;30.65;;
70313;SDS011;57725;47.526;18.986;2023-05-16T00:39:46;42.67;;;30.85;;
70313;SDS011;57725;47.526;18.986;2023-05-16T00:42:14;41.75;;;30.65;;
70313;SDS011;57725;47.526;18.986;2023-05-16T00:44:41;40.03;;;29.20;;
70313;SDS011;57725;47.526;18.986;2023-05-16T00:47:07;41.03;;;29.35;;
70313;SDS011;57725;47.526;18.986;2023-05-16T00:49:32;41.47;;;29.60;;
70313;SDS011;57725;47.526;18.986;2023-05-16T00:51:58;40.05;;;28.63;;
70313;SDS011;57725;47.526;18.986;2023-05-16T00:54:23;38.05;;;27.55;;
70313;SDS011;57725;47.526;18.986;2023-05-16T00:56:51;38.25;;;27.35;;
70313;SDS011;57725;47.526;18.986;2023-05-16T00:59:19;38.42;;;27.38;;
70313;SDS011;57725;47.526;18.986;2023-05-16T01:01:45;36.35;;;26.60;;
70313;SDS011;57725;47.526;18.986;2023-05-16T01:04:16;37.65;;;27.10;;
70313;SDS011;57725;47.526;18.986;2023-05-16T01:06:43;38.00;;;26.60;;
70313;SDS011;57725;47.526;18.986;2023-05-16T01:09:14;37.08;;;26.65;;
70313;SDS011;57725;47.526;18.986;2023-05-16T01:11:51;36.47;;;25.42;;
70313;SDS011;57725;47.526;18.986;2023-05-16T01:28:11;31.85;;;23.88;;
70313;SDS011;57725;47.526;18.986;2023-05-16T01:30:42;33.03;;;22.92;;
70313;SDS011;57725;47.526;18.986;2023-05-16T01:33:08;30.45;;;21.67;;
70313;SDS011;57725;47.526;18.986;2023-05-16T01:44:24;30.02;;;21.70;;
70313;SDS011;57725;47.526;18.986;2023-05-16T01:46:55;29.23;;;21.02;;
70313;SDS011;57725;47.526;18.986;2023-05-16T01:52:10;28.92;;;21.35;;
70313;SDS011;57725;47.526;18.986;2023-05-16T01:54:44;28.90;;;20.63;;
70313;SDS011;57725;47.526;18.986;2023-05-16T01:57:11;27.45;;;20.50;;
70313;SDS011;57725;47.526;18.986;2023-05-16T01:59:40;28.15;;;19.80;;
70313;SDS011;57725;47.526;18.986;2023-05-16T02:02:09;26.15;;;19.27;;
70313;SDS011;57725;47.526;18.986;2023-05-16T02:04:35;26.00;;;19.02;;
70313;SDS011;57725;47.526;18.986;2023-05-16T02:07:00;25.73;;;18.77;;
70313;SDS011;57725;47.526;18.986;2023-05-16T02:09:29;25.20;;;18.60;;
70313;SDS011;57725;47.526;18.986;2023-05-16T02:11:54;25.10;;;17.95;;
70313;SDS011;57725;47.526;18.986;2023-05-16T02:14:22;24.33;;;18.23;;
70313;SDS011;57725;47.526;18.986;2023-05-16T02:16:49;23.73;;;18.08;;
70313;SDS011;57725;47.526;18.986;2023-05-16T02:19:17;23.63;;;17.27;;
70313;SDS011;57725;47.526;18.986;2023-05-16T02:21:48;23.45;;;16.83;;
70313;SDS011;57725;47.526;18.986;2023-05-16T02:24:14;23.90;;;17.40;;
70313;SDS011;57725;47.526;18.986;2023-05-16T02:26:42;23.90;;;17.17;;
70313;SDS011;57725;47.526;18.986;2023-05-16T02:29:12;22.30;;;16.95;;
70313;SDS011;57725;47.526;18.986;2023-05-16T02:31:39;21.52;;;16.13;;
70313;SDS011;57725;47.526;18.986;2023-05-16T02:34:07;22.80;;;16.63;;
70313;SDS011;57725;47.526;18.986;2023-05-16T02:36:35;21.45;;;16.27;;
70313;SDS011;57725;47.526;18.986;2023-05-16T02:39:02;19.75;;;14.65;;
70313;SDS011;57725;47.526;18.986;2023-05-16T02:41:32;23.20;;;16.25;;
70313;SDS011;57725;47.526;18.986;2023-05-16T02:44:00;21.80;;;16.08;;
70313;SDS011;57725;47.526;18.986;2023-05-16T02:46:30;21.88;;;16.23;;
70313;SDS011;57725;47.526;18.986;2023-05-16T02:48:58;21.20;;;16.15;;
70313;SDS011;57725;47.526;18.986;2023-05-16T02:51:24;20.35;;;14.75;;
70313;SDS011;57725;47.526;18.986;2023-05-16T02:53:51;20.00;;;14.75;;
70313;SDS011;57725;47.526;18.986;2023-05-16T02:56:17;19.08;;;13.70;;
70313;SDS011;57725;47.526;18.986;2023-05-16T02:58:45;18.75;;;14.52;;
70313;SDS011;57725;47.526;18.986;2023-05-16T03:01:14;18.08;;;14.13;;
70313;SDS011;57725;47.526;18.986;2023-05-16T03:03:40;17.50;;;13.35;;
70313;SDS011;57725;47.526;18.986;2023-05-16T03:06:06;18.48;;;13.85;;
70313;SDS011;57725;47.526;18.986;2023-05-16T03:08:32;16.77;;;13.18;;
70313;SDS011;57725;47.526;18.986;2023-05-16T03:10:57;17.90;;;13.50;;
70313;SDS011;57725;47.526;18.986;2023-05-16T03:13:25;17.52;;;13.13;;
70313;SDS011;57725;47.526;18.986;2023-05-16T03:15:51;18.20;;;13.65;;
70313;SDS011;57725;47.526;18.986;2023-05-16T03:18:16;17.63;;;13.38;;
70313;SDS011;57725;47.526;18.986;2023-05-16T03:20:44;17.13;;;13.13;;
70313;SDS011;57725;47.526;18.986;2023-05-16T03:23:16;16.73;;;12.57;;
70313;SDS011;57725;47.526;18.986;2023-05-16T03:25:43;17.52;;;12.27;;
70313;SDS011;57725;47.526;18.986;2023-05-16T03:28:10;16.95;;;12.27;;
70313;SDS011;57725;47.526;18.986;2023-05-16T03:30:38;16.83;;;12.60;;
70313;SDS011;57725;47.526;18.986;2023-05-16T03:33:03;14.73;;;11.05;;
70313;SDS011;57725;47.526;18.986;2023-05-16T03:35:31;15.32;;;11.55;;
70313;SDS011;57725;47.526;18.986;2023-05-16T03:37:58;16.60;;;11.52;;
70313;SDS011;57725;47.526;18.986;2023-05-16T03:40:24;17.25;;;12.38;;
70313;SDS011;57725;47.526;18.986;2023-05-16T03:42:49;16.33;;;11.77;;
70313;SDS011;57725;47.526;18.986;2023-05-16T03:45:15;15.73;;;11.80;;
70313;SDS011;57725;47.526;18.986;2023-05-16T03:47:42;14.98;;;11.00;;
70313;SDS011;57725;47.526;18.986;2023-05-16T03:50:08;14.93;;;10.60;;
70313;SDS011;57725;47.526;18.986;2023-05-16T03:52:35;13.40;;;10.05;;
70313;SDS011;57725;47.526;18.986;2023-05-16T03:55:03;14.10;;;10.85;;
70313;SDS011;57725;47.526;18.986;2023-05-16T03:57:32;15.07;;;10.32;;
70313;SDS011;57725;47.526;18.986;2023-05-16T03:59:58;12.65;;;9.85;;
70313;SDS011;57725;47.526;18.986;2023-05-16T04:02:27;12.95;;;9.98;;
70313;SDS011;57725;47.526;18.986;2023-05-16T04:04:55;14.23;;;10.38;;
70313;SDS011;57725;47.526;18.986;2023-05-16T04:07:23;13.35;;;9.43;;
70313;SDS011;57725;47.526;18.986;2023-05-16T04:09:51;13.20;;;9.57;;
70313;SDS011;57725;47.526;18.986;2023-05-16T04:12:18;14.20;;;9.88;;
70313;SDS011;57725;47.526;18.986;2023-05-16T04:14:51;13.35;;;9.82;;
70313;SDS011;57725;47.526;18.986;2023-05-16T04:17:17;13.75;;;9.57;;
70313;SDS011;57725;47.526;18.986;2023-05-16T04:19:45;11.95;;;9.20;;
70313;SDS011;57725;47.526;18.986;2023-05-16T04:22:10;13.73;;;9.63;;
70313;SDS011;57725;47.526;18.986;2023-05-16T04:24:40;13.05;;;9.45;;
70313;SDS011;57725;47.526;18.986;2023-05-16T04:27:06;11.85;;;8.70;;
70313;SDS011;57725;47.526;18.986;2023-05-16T04:29:34;11.45;;;8.52;;
70313;SDS011;57725;47.526;18.986;2023-05-16T04:32:00;13.30;;;9.45;;
70313;SDS011;57725;47.526;18.986;2023-05-16T04:34:26;13.13;;;8.93;;
70313;SDS011;57725;47.526;18.986;2023-05-16T04:36:54;11.93;;;8.25;;
70313;SDS011;57725;47.526;18.986;2023-05-16T04:39:20;9.70;;;7.88;;
70313;SDS011;57725;47.526;18.986;2023-05-16T04:41:48;13.30;;;8.98;;
70313;SDS011;57725;47.526;18.986;2023-05-16T04:44:14;11.05;;;8.05;;
70313;SDS011;57725;47.526;18.986;2023-05-16T04:46:39;11.07;;;7.90;;
70313;SDS011;57725;47.526;18.986;2023-05-16T04:49:07;11.65;;;7.90;;
70313;SDS011;57725;47.526;18.986;2023-05-16T04:51:35;9.98;;;7.90;;
70313;SDS011;57725;47.526;18.986;2023-05-16T04:54:00;10.63;;;7.78;;
70313;SDS011;57725;47.526;18.986;2023-05-16T04:56:28;9.88;;;7.45;;
70313;SDS011;57725;47.526;18.986;2023-05-16T04:58:53;10.05;;;7.30;;
70313;SDS011;57725;47.526;18.986;2023-05-16T05:01:19;9.93;;;7.35;;
70313;SDS011;57725;47.526;18.986;2023-05-16T05:03:44;11.25;;;7.55;;
70313;SDS011;57725;47.526;18.986;2023-05-16T05:06:10;9.43;;;7.22;;
70313;SDS011;57725;47.526;18.986;2023-05-16T05:08:35;11.13;;;7.68;;
70313;SDS011;57725;47.526;18.986;2023-05-16T05:11:03;11.18;;;7.35;;
70313;SDS011;57725;47.526;18.986;2023-05-16T05:13:29;9.38;;;7.10;;
70313;SDS011;57725;47.526;18.986;2023-05-16T05:15:56;8.48;;;6.50;;
70313;SDS011;57725;47.526;18.986;2023-05-16T05:18:26;9.25;;;6.82;;
70313;SDS011;57725;47.526;18.986;2023-05-16T05:20:51;9.88;;;7.45;;
70313;SDS011;57725;47.526;18.986;2023-05-16T05:23:19;9.57;;;7.25;;
70313;SDS011;57725;47.526;18.986;2023-05-16T05:25:47;9.52;;;6.97;;
70313;SDS011;57725;47.526;18.986;2023-05-16T05:28:12;8.73;;;6.63;;
70313;SDS011;57725;47.526;18.986;2023-05-16T05:30:38;8.43;;;6.30;;
70313;SDS011;57725;47.526;18.986;2023-05-16T05:33:03;8.93;;;6.75;;
70313;SDS011;57725;47.526;18.986;2023-05-16T05:35:28;8.52;;;6.13;;
70313;SDS011;57725;47.526;18.986;2023-05-16T05:37:54;8.15;;;6.05;;
70313;SDS011;57725;47.526;18.986;2023-05-16T05:40:19;11.48;;;6.88;;
70313;SDS011;57725;47.526;18.986;2023-05-16T05:42:47;7.18;;;5.93;;
70313;SDS011;57725;47.526;18.986;2023-05-16T05:45:13;7.18;;;5.68;;
70313;SDS011;57725;47.526;18.986;2023-05-16T05:47:42;8.15;;;5.82;;
70313;SDS011;57725;47.526;18.986;2023-05-16T05:50:07;8.43;;;6.05;;
70313;SDS011;57725;47.526;18.986;2023-05-16T05:52:35;7.43;;;5.38;;
70313;SDS011;57725;47.526;18.986;2023-05-16T05:55:03;7.88;;;5.97;;
70313;SDS011;57725;47.526;18.986;2023-05-16T05:57:31;7.40;;;5.57;;
70313;SDS011;57725;47.526;18.986;2023-05-16T05:59:57;7.38;;;5.72;;
70313;SDS011;57725;47.526;18.986;2023-05-16T06:02:25;8.65;;;6.22;;
70313;SDS011;57725;47.526;18.986;2023-05-16T06:04:51;6.68;;;4.90;;
70313;SDS011;57725;47.526;18.986;2023-05-16T06:07:18;7.72;;;5.70;;
70313;SDS011;57725;47.526;18.986;2023-05-16T06:09:46;7.75;;;5.75;;
70313;SDS011;57725;47.526;18.986;2023-05-16T06:12:14;7.10;;;5.90;;
70313;SDS011;57725;47.526;18.986;2023-05-16T06:14:39;7.65;;;5.63;;
70313;SDS011;57725;47.526;18.986;2023-05-16T06:17:07;6.82;;;4.95;;
70313;SDS011;57725;47.526;18.986;2023-05-16T06:19:32;6.63;;;5.20;;
70313;SDS011;57725;47.526;18.986;2023-05-16T06:22:03;6.65;;;5.00;;
70313;SDS011;57725;47.526;18.986;2023-05-16T06:24:28;6.32;;;4.80;;
70313;SDS011;57725;47.526;18.986;2023-05-16T06:26:54;6.60;;;5.05;;
70313;SDS011;57725;47.526;18.986;2023-05-16T06:29:22;6.78;;;5.10;;
70313;SDS011;57725;47.526;18.986;2023-05-16T06:31:52;7.03;;;5.40;;
70313;SDS011;57725;47.526;18.986;2023-05-16T06:34:22;5.88;;;4.90;;
70313;SDS011;57725;47.526;18.986;2023-05-16T06:36:52;7.45;;;5.30;;
70313;SDS011;57725;47.526;18.986;2023-05-16T06:39:26;6.03;;;4.85;;
70313;SDS011;57725;47.526;18.986;2023-05-16T06:41:53;7.18;;;5.03;;
70313;SDS011;57725;47.526;18.986;2023-05-16T06:44:20;6.28;;;4.68;;
70313;SDS011;57725;47.526;18.986;2023-05-16T06:46:48;6.13;;;4.38;;
70313;SDS011;57725;47.526;18.986;2023-05-16T06:49:13;5.72;;;4.50;;
70313;SDS011;57725;47.526;18.986;2023-05-16T06:51:39;6.32;;;4.38;;
70313;SDS011;57725;47.526;18.986;2023-05-16T06:54:04;5.68;;;4.43;;
70313;SDS011;57725;47.526;18.986;2023-05-16T06:56:34;6.15;;;4.40;;
70313;SDS011;57725;47.526;18.986;2023-05-16T06:59:05;6.22;;;4.90;;
70313;SDS011;57725;47.526;18.986;2023-05-16T07:01:30;5.28;;;4.45;;
70313;SDS011;57725;47.526;18.986;2023-05-16T07:03:56;6.57;;;5.05;;
70313;SDS011;57725;47.526;18.986;2023-05-16T07:06:24;6.80;;;4.53;;
70313;SDS011;57725;47.526;18.986;2023-05-16T07:08:51;5.97;;;4.65;;
70313;SDS011;57725;47.526;18.986;2023-05-16T07:11:19;5.65;;;4.15;;
70313;SDS011;57725;47.526;18.986;2023-05-16T07:13:45;4.82;;;4.07;;
70313;SDS011;57725;47.526;18.986;2023-05-16T07:16:13;5.75;;;4.22;;
70313;SDS011;57725;47.526;18.986;2023-05-16T07:18:38;5.93;;;4.25;;
70313;SDS011;57725;47.526;18.986;2023-05-16T07:21:03;6.43;;;4.35;;
70313;SDS011;57725;47.526;18.986;2023-05-16T07:23:29;5.45;;;4.18;;
70313;SDS011;57725;47.526;18.986;2023-05-16T07:25:57;5.78;;;4.47;;
70313;SDS011;57725;47.526;18.986;2023-05-16T07:28:25;5.28;;;4.32;;
70313;SDS011;57725;47.526;18.986;2023-05-16T07:30:55;5.97;;;4.25;;
70313;SDS011;57725;47.526;18.986;2023-05-16T07:33:25;5.85;;;3.95;;
70313;SDS011;57725;47.526;18.986;2023-05-16T07:35:51;5.07;;;3.83;;
70313;SDS011;57725;47.526;18.986;2023-05-16T07:38:19;5.53;;;3.97;;
70313;SDS011;57725;47.526;18.986;2023-05-16T07:40:48;4.90;;;3.60;;
70313;SDS011;57725;47.526;18.986;2023-05-16T07:43:16;6.03;;;4.45;;
70313;SDS011;57725;47.526;18.986;2023-05-16T07:45:41;5.20;;;3.80;;
70313;SDS011;57725;47.526;18.986;2023-05-16T07:48:07;5.55;;;3.80;;
70313;SDS011;57725;47.526;18.986;2023-05-16T07:50:34;5.63;;;4.20;;
70313;SDS011;57725;47.526;18.986;2023-05-16T07:53:00;5.72;;;4.03;;
70313;SDS011;57725;47.526;18.986;2023-05-16T07:55:25;4.57;;;3.33;;
70313;SDS011;57725;47.526;18.986;2023-05-16T07:57:53;4.55;;;3.65;;
70313;SDS011;57725;47.526;18.986;2023-05-16T08:00:24;5.57;;;4.18;;
70313;SDS011;57725;47.526;18.986;2023-05-16T08:02:50;5.30;;;3.95;;
70313;SDS011;57725;47.526;18.986;2023-05-16T08:05:18;5.50;;;4.30;;
70313;SDS011;57725;47.526;18.986;2023-05-16T08:07:43;4.68;;;3.90;;
70313;SDS011;57725;47.526;18.986;2023-05-16T08:10:11;5.32;;;3.95;;
70313;SDS011;57725;47.526;18.986;2023-05-16T08:12:36;4.45;;;3.72;;
70313;SDS011;57725;47.526;18.986;2023-05-16T08:15:02;5.82;;;4.07;;
70313;SDS011;57725;47.526;18.986;2023-05-16T08:17:31;4.38;;;3.13;;
70313;SDS011;57725;47.526;18.986;2023-05-16T08:19:56;5.82;;;4.05;;
70313;SDS011;57725;47.526;18.986;2023-05-16T08:22:23;4.65;;;3.58;;
70313;SDS011;57725;47.526;18.986;2023-05-16T08:24:52;4.70;;;3.50;;
70313;SDS011;57725;47.526;18.986;2023-05-16T08:27:21;6.03;;;3.65;;
70313;SDS011;57725;47.526;18.986;2023-05-16T08:29:47;5.28;;;4.20;;
70313;SDS011;57725;47.526;18.986;2023-05-16T08:32:15;5.30;;;3.95;;
70313;SDS011;57725;47.526;18.986;2023-05-16T08:34:41;4.60;;;3.53;;
70313;SDS011;57725;47.526;18.986;2023-05-16T08:37:06;4.15;;;3.53;;
70313;SDS011;57725;47.526;18.986;2023-05-16T08:39:32;4.53;;;3.75;;
70313;SDS011;57725;47.526;18.986;2023-05-16T08:42:02;4.80;;;3.78;;
70313;SDS011;57725;47.526;18.986;2023-05-16T08:44:30;5.13;;;3.60;;
70313;SDS011;57725;47.526;18.986;2023-05-16T08:46:56;4.68;;;3.30;;
70313;SDS011;57725;47.526;18.986;2023-05-16T08:49:27;5.28;;;4.07;;
70313;SDS011;57725;47.526;18.986;2023-05-16T08:51:55;4.28;;;3.70;;
70313;SDS011;57725;47.526;18.986;2023-05-16T08:54:26;5.20;;;4.13;;
70313;SDS011;57725;47.526;18.986;2023-05-16T08:56:52;4.40;;;3.50;;
70313;SDS011;57725;47.526;18.986;2023-05-16T08:59:21;4.53;;;3.38;;
70313;SDS011;57725;47.526;18.986;2023-05-16T09:01:46;4.70;;;3.55;;
70313;SDS011;57725;47.526;18.986;2023-05-16T09:04:12;4.55;;;3.60;;
70313;SDS011;57725;47.526;18.986;2023-05-16T09:06:40;5.00;;;3.33;;
70313;SDS011;57725;47.526;18.986;2023-05-16T09:09:14;4.93;;;3.90;;
70313;SDS011;57725;47.526;18.986;2023-05-16T09:11:39;4.35;;;3.55;;
70313;SDS011;57725;47.526;18.986;2023-05-16T09:14:08;4.90;;;3.53;;
70313;SDS011;57725;47.526;18.986;2023-05-16T09:16:34;4.97;;;3.63;;
70313;SDS011;57725;47.526;18.986;2023-05-16T09:19:01;5.20;;;3.70;;
70313;SDS011;57725;47.526;18.986;2023-05-16T09:21:29;4.22;;;3.25;;
70313;SDS011;57725;47.526;18.986;2023-05-16T09:24:06;5.32;;;3.35;;
70313;SDS011;57725;47.526;18.986;2023-05-16T09:26:33;5.35;;;3.70;;
70313;SDS011;57725;47.526;18.986;2023-05-16T09:29:00;4.47;;;3.45;;
70313;SDS011;57725;47.526;18.986;2023-05-16T09:31:26;4.53;;;3.30;;
70313;SDS011;57725;47.526;18.986;2023-05-16T09:34:00;4.40;;;3.83;;
70313;SDS011;57725;47.526;18.986;2023-05-16T09:36:26;4.05;;;3.25;;
70313;SDS011;57725;47.526;18.986;2023-05-16T09:38:55;4.45;;;3.70;;
70313;SDS011;57725;47.526;18.986;2023-05-16T09:41:27;4.22;;;3.30;;
70313;SDS011;57725;47.526;18.986;2023-05-16T09:44:04;4.07;;;3.33;;
70313;SDS011;57725;47.526;18.986;2023-05-16T09:46:36;4.05;;;3.15;;
70313;SDS011;57725;47.526;18.986;2023-05-16T09:49:10;4.15;;;3.17;;
70313;SDS011;57725;47.526;18.986;2023-05-16T09:51:36;4.13;;;3.08;;
70313;SDS011;57725;47.526;18.986;2023-05-16T09:54:06;5.22;;;3.72;;
70313;SDS011;57725;47.526;18.986;2023-05-16T09:56:32;4.75;;;3.10;;
70313;SDS011;57725;47.526;18.986;2023-05-16T09:58:58;4.22;;;3.50;;
70313;SDS011;57725;47.526;18.986;2023-05-16T10:01:29;3.70;;;3.28;;
70313;SDS011;57725;47.526;18.986;2023-05-16T10:03:55;4.40;;;3.50;;
70313;SDS011;57725;47.526;18.986;2023-05-16T10:06:22;3.70;;;2.92;;
70313;SDS011;57725;47.526;18.986;2023-05-16T10:08:53;3.88;;;3.35;;
70313;SDS011;57725;47.526;18.986;2023-05-16T10:11:19;3.80;;;2.92;;
70313;SDS011;57725;47.526;18.986;2023-05-16T10:13:45;4.03;;;2.90;;
70313;SDS011;57725;47.526;18.986;2023-05-16T10:16:17;3.72;;;3.10;;
70313;SDS011;57725;47.526;18.986;2023-05-16T10:18:48;3.58;;;2.92;;
70313;SDS011;57725;47.526;18.986;2023-05-16T10:21:15;6.38;;;3.63;;
70313;SDS011;57725;47.526;18.986;2023-05-16T10:23:46;3.53;;;2.90;;
70313;SDS011;57725;47.526;18.986;2023-05-16T10:26:17;5.22;;;3.08;;
70313;SDS011;57725;47.526;18.986;2023-05-16T10:28:47;4.10;;;3.15;;
70313;SDS011;57725;47.526;18.986;2023-05-16T10:31:14;4.22;;;3.22;;
70313;SDS011;57725;47.526;18.986;2023-05-16T10:33:45;3.60;;;3.13;;
70313;SDS011;57725;47.526;18.986;2023-05-16T10:36:11;3.25;;;2.95;;
70313;SDS011;57725;47.526;18.986;2023-05-16T10:38:38;3.88;;;2.83;;
70313;SDS011;57725;47.526;18.986;2023-05-16T10:41:07;4.45;;;3.35;;
70313;SDS011;57725;47.526;18.986;2023-05-16T10:43:33;3.45;;;3.03;;
70313;SDS011;57725;47.526;18.986;2023-05-16T10:46:02;4.30;;;3.15;;
70313;SDS011;57725;47.526;18.986;2023-05-16T10:50:55;4.43;;;3.13;;
70313;SDS011;57725;47.526;18.986;2023-05-16T10:53:22;3.97;;;2.92;;
70313;SDS011;57725;47.526;18.986;2023-05-16T10:58:29;3.80;;;3.35;;
70313;SDS011;57725;47.526;18.986;2023-05-16T11:06:33;4.68;;;2.78;;
70313;SDS011;57725;47.526;18.986;2023-05-16T11:14:37;3.20;;;2.72;;
70313;SDS011;57725;47.526;18.986;2023-05-16T11:27:29;3.72;;;3.00;;
70313;SDS011;57725;47.526;18.986;2023-05-16T11:32:37;4.15;;;3.08;;
70313;SDS011;57725;47.526;18.986;2023-05-16T11:35:15;3.72;;;3.15;;
70313;SDS011;57725;47.526;18.986;2023-05-16T11:37:42;4.57;;;3.67;;
70313;SDS011;57725;47.526;18.986;2023-05-16T11:40:11;4.20;;;3.28;;
70313;SDS011;57725;47.526;18.986;2023-05-16T11:42:47;4.35;;;3.40;;
70313;SDS011;57725;47.526;18.986;2023-05-16T11:47:44;3.80;;;2.95;;
70313;SDS011;57725;47.526;18.986;2023-05-16T11:50:17;5.95;;;3.55;;
70313;SDS011;57725;47.526;18.986;2023-05-16T11:52:48;4.13;;;3.53;;
70313;SDS011;57725;47.526;18.986;2023-05-16T11:55:18;3.47;;;2.83;;
70313;SDS011;57725;47.526;18.986;2023-05-16T11:57:45;4.32;;;3.70;;
70313;SDS011;57725;47.526;18.986;2023-05-16T12:00:18;4.25;;;3.40;;
70313;SDS011;57725;47.526;18.986;2023-05-16T12:02:50;3.65;;;2.95;;
70313;SDS011;57725;47.526;18.986;2023-05-16T12:05:17;3.92;;;3.05;;
70313;SDS011;57725;47.526;18.986;2023-05-16T12:07:44;4.15;;;3.17;;
70313;SDS011;57725;47.526;18.986;2023-05-16T12:10:13;4.15;;;3.70;;
70313;SDS011;57725;47.526;18.986;2023-05-16T12:12:40;3.85;;;3.40;;
70313;SDS011;57725;47.526;18.986;2023-05-16T12:15:08;3.85;;;3.45;;
70313;SDS011;57725;47.526;18.986;2023-05-16T12:17:35;3.72;;;2.90;;
70313;SDS011;57725;47.526;18.986;2023-05-16T12:20:03;4.25;;;3.75;;
70313;SDS011;57725;47.526;18.986;2023-05-16T12:22:37;3.75;;;3.40;;
70313;SDS011;57725;47.526;18.986;2023-05-16T12:27:59;3.53;;;3.03;;
70313;SDS011;57725;47.526;18.986;2023-05-16T12:30:31;3.83;;;3.25;;
70313;SDS011;57725;47.526;18.986;2023-05-16T12:32:59;3.60;;;3.05;;
70313;SDS011;57725;47.526;18.986;2023-05-16T12:35:33;3.42;;;3.08;;
70313;SDS011;57725;47.526;18.986;2023-05-16T12:38:04;4.32;;;3.40;;
70313;SDS011;57725;47.526;18.986;2023-05-16T12:40:31;4.03;;;3.30;;
70313;SDS011;57725;47.526;18.986;2023-05-16T12:42:57;3.47;;;2.80;;
70313;SDS011;57725;47.526;18.986;2023-05-16T12:45:26;4.22;;;3.38;;
70313;SDS011;57725;47.526;18.986;2023-05-16T12:47:52;3.72;;;3.05;;
70313;SDS011;57725;47.526;18.986;2023-05-16T12:50:17;3.67;;;3.20;;
70313;SDS011;57725;47.526;18.986;2023-05-16T12:55:13;4.43;;;3.45;;
70313;SDS011;57725;47.526;18.986;2023-05-16T12:57:40;4.10;;;3.20;;
70313;SDS011;57725;47.526;18.986;2023-05-16T13:00:10;3.05;;;2.70;;
70313;SDS011;57725;47.526;18.986;2023-05-16T13:02:36;3.65;;;2.80;;
70313;SDS011;57725;47.526;18.986;2023-05-16T13:05:02;3.25;;;2.55;;
70313;SDS011;57725;47.526;18.986;2023-05-16T13:07:28;4.30;;;3.63;;
70313;SDS011;57725;47.526;18.986;2023-05-16T13:09:54;3.40;;;3.10;;
70313;SDS011;57725;47.526;18.986;2023-05-16T13:12:20;4.30;;;2.90;;
70313;SDS011;57725;47.526;18.986;2023-05-16T13:14:53;3.33;;;2.67;;
70313;SDS011;57725;47.526;18.986;2023-05-16T13:17:21;3.95;;;3.55;;
70313;SDS011;57725;47.526;18.986;2023-05-16T13:19:50;4.40;;;3.33;;
70313;SDS011;57725;47.526;18.986;2023-05-16T13:22:16;3.58;;;3.00;;
70313;SDS011;57725;47.526;18.986;2023-05-16T13:24:41;3.67;;;2.90;;
70313;SDS011;57725;47.526;18.986;2023-05-16T13:27:06;4.43;;;3.78;;
70313;SDS011;57725;47.526;18.986;2023-05-16T13:29:32;4.28;;;3.20;;
70313;SDS011;57725;47.526;18.986;2023-05-16T13:31:59;3.95;;;3.05;;
70313;SDS011;57725;47.526;18.986;2023-05-16T13:34:27;3.42;;;3.05;;
70313;SDS011;57725;47.526;18.986;2023-05-16T13:36:53;3.78;;;2.92;;
70313;SDS011;57725;47.526;18.986;2023-05-16T13:39:21;3.30;;;3.00;;
70313;SDS011;57725;47.526;18.986;2023-05-16T13:41:50;4.07;;;2.67;;
70313;SDS011;57725;47.526;18.986;2023-05-16T13:44:18;3.92;;;3.08;;
70313;SDS011;57725;47.526;18.986;2023-05-16T13:46:44;3.90;;;3.58;;
70313;SDS011;57725;47.526;18.986;2023-05-16T13:49:12;3.63;;;2.78;;
70313;SDS011;57725;47.526;18.986;2023-05-16T13:51:37;3.33;;;2.65;;
70313;SDS011;57725;47.526;18.986;2023-05-16T13:54:05;3.45;;;3.13;;
70313;SDS011;57725;47.526;18.986;2023-05-16T13:56:30;3.42;;;2.97;;
70313;SDS011;57725;47.526;18.986;2023-05-16T13:58:56;2.83;;;2.53;;
70313;SDS011;57725;47.526;18.986;2023-05-16T14:01:21;3.67;;;2.95;;
70313;SDS011;57725;47.526;18.986;2023-05-16T14:03:47;5.60;;;3.30;;
70313;SDS011;57725;47.526;18.986;2023-05-16T14:06:12;4.32;;;3.38;;
70313;SDS011;57725;47.526;18.986;2023-05-16T14:08:37;3.35;;;2.80;;
70313;SDS011;57725;47.526;18.986;2023-05-16T14:11:04;3.47;;;2.63;;
70313;SDS011;57725;47.526;18.986;2023-05-16T14:13:31;4.40;;;3.60;;
70313;SDS011;57725;47.526;18.986;2023-05-16T14:15:57;3.60;;;3.13;;
70313;SDS011;57725;47.526;18.986;2023-05-16T14:18:28;3.20;;;2.83;;
70313;SDS011;57725;47.526;18.986;2023-05-16T14:20:56;3.20;;;2.65;;
70313;SDS011;57725;47.526;18.986;2023-05-16T14:23:22;4.97;;;2.85;;
70313;SDS011;57725;47.526;18.986;2023-05-16T14:25:50;3.97;;;3.00;;
70313;SDS011;57725;47.526;18.986;2023-05-16T14:28:17;3.92;;;2.88;;
70313;SDS011;57725;47.526;18.986;2023-05-16T14:30:43;3.40;;;3.10;;
70313;SDS011;57725;47.526;18.986;2023-05-16T14:33:08;3.00;;;2.70;;
70313;SDS011;57725;47.526;18.986;2023-05-16T14:35:34;3.47;;;2.92;;
70313;SDS011;57725;47.526;18.986;2023-05-16T14:38:02;4.88;;;2.70;;
70313;SDS011;57725;47.526;18.986;2023-05-16T14:40:28;3.95;;;2.92;;
70313;SDS011;57725;47.526;18.986;2023-05-16T14:42:53;4.07;;;3.00;;
70313;SDS011;57725;47.526;18.986;2023-05-16T14:45:23;3.35;;;2.80;;
70313;SDS011;57725;47.526;18.986;2023-05-16T14:47:51;3.20;;;2.80;;
70313;SDS011;57725;47.526;18.986;2023-05-16T14:50:16;4.53;;;3.42;;
70313;SDS011;57725;47.526;18.986;2023-05-16T14:52:44;2.55;;;2.20;;
70313;SDS011;57725;47.526;18.986;2023-05-16T14:55:12;3.30;;;2.92;;
70313;SDS011;57725;47.526;18.986;2023-05-16T14:57:38;3.25;;;2.85;;
70313;SDS011;57725;47.526;18.986;2023-05-16T15:00:06;4.32;;;3.08;;
70313;SDS011;57725;47.526;18.986;2023-05-16T15:02:35;3.10;;;2.80;;
70313;SDS011;57725;47.526;18.986;2023-05-16T15:05:00;3.28;;;2.78;;
70313;SDS011;57725;47.526;18.986;2023-05-16T15:07:33;3.58;;;2.90;;
70313;SDS011;57725;47.526;18.986;2023-05-16T15:10:01;4.40;;;2.95;;
70313;SDS011;57725;47.526;18.986;2023-05-16T15:12:28;3.42;;;2.67;;
70313;SDS011;57725;47.526;18.986;2023-05-16T15:14:57;4.75;;;2.78;;
70313;SDS011;57725;47.526;18.986;2023-05-16T15:17:22;3.08;;;2.65;;
70313;SDS011;57725;47.526;18.986;2023-05-16T15:19:47;4.25;;;2.78;;
70313;SDS011;57725;47.526;18.986;2023-05-16T15:22:20;5.60;;;3.28;;
70313;SDS011;57725;47.526;18.986;2023-05-16T15:24:45;3.35;;;2.95;;
70313;SDS011;57725;47.526;18.986;2023-05-16T15:27:16;4.03;;;2.80;;
70313;SDS011;57725;47.526;18.986;2023-05-16T15:29:44;3.10;;;2.80;;